Cochin International Airport
VOCI : now visible

Airfield :











YOU CAN JOIN US ON...

 
LOGIN :

Register | Disclaimer

   EN    FR    IT 

 









Legend :    VFR   Marginal VFR   IFR   Intensive IFR   Very Intensive IFR
Visi :
Ceiling :
>= 8 km
>= 3000ft
5 to 8 km
1000 to 3000 ft
1500m to 5 km
500 to 1000 ft
800 to 1500m
200 to 500 ft
< 800m
< 200 ft
Symbols :   Thunderstorms  Fog  Heavy snow  Heavy precipitations  Wind > 20 kt






- Airport Elevation : 30 ft
- IATA code : COK


VOCI - Cochin International

CURRENT METAR :
  • 060930Z 05007KT 5000 HZ FEW015 BKN080 31/21 Q1008 NOSIG

EXPIRED METARs :
  • 060900Z 06009KT 5000 HZ FEW015 BKN080 32/22 Q1008 NOSIG
  • 060830Z 10003KT 5000 HZ FEW015 SCT090 32/21 Q1008 NOSIG
  • 060800Z 07004KT 5000 HZ FEW015 SCT090 33/22 Q1008 NOSIG
  • 060730Z 03006KT 5000 HZ FEW015 SCT090 32/22 Q1009 NOSIG

TAF TAF VOCI
Valid from the 06 at 09:00 until the 06 at 18:00 UTC


060800Z 0609/0618 35005KT 3000 TSRA RA SCT008 SCT010 FEW025CB BKN080
BECMG 0615/0618 4000 HZ SCT015 SCT080



MET'MAP, your aeronautical weather chart ! - Copyright ORBIFLY December 2007 - Disclaimer

ORBIFLY MET'MAP TEAM :

Programming & Development : Alexandra Zaïnal
Concept & original design : Baudouin d'Aumeries
Assistance for programming : Marc-Olivier Méhu
Technical & hardware support : Manuel Goepfert

Contact : metmap@orbifly.com




SOURCES & CREDITS :

   NOAA       Earth
Advisory